Etusivu
METAR-TAF:

METAR-TAF

Lentoasemat :

Shanghai-Pudong, Kiina

Shanghai Pudongin kansainvälinen lentoasema

Leveyspiiri: 31-07N, Pituuspiiri: 121-46E, korkeus merenpinnasta: 4 m

Tämänhetkinen sää

Tämä raportti tehtiin 40 minuuttia sitten, kello 23.30 UTC
Tuuli 8 kn etelästä/kaakosta
Lämpötila 22°C
Kosteus 73%
Ilmanpaine 1014 hPa
Näkyvyys 10 km tai enemmän
ei pilviä alle 1500 m:ssä eikä cumulonimbus-pilviä

METAR: ZSPD 282330Z 16004MPS CAVOK 22/17 Q1014 NOSIG

Aika: 08:10 (00:10 UTC)

Sääennuste

Tämä raportti tehtiin 2 tuntia ja 58 minuuttia sitten, kello 21.12 UTC
Ennuste voimassa 29. päivästä klo 00 UTC - 29. päivään klo 24 UTC
Tuuli 8 kn etelästä/kaakosta
Näkyvyys: 6000 m
Hajanaisia pilviä 1600 ft:n korkeudessa

TAF: ZSPD 282112Z 2900/2924 15004MPS 6000 SCT016 TX31/2906Z TN18/2921Z

Säähavainnot ja -ennusteet yli 4000 lentoasemalta (METAR- ja TAF-raportit).

Käytössä olevat sääasemat on merkitty karttaan keltaisilla ja punaisilla pisteillä.

Aseta hiiri pisteen päälle nähdäksesi sääaseman nimen.

Klikkaa sitten nähdäksesi säähavainnot ja -ennusteet.

Kartan vaihtaminen: klikkaa mustalla rastilla varustettuja vihreitä pisteitä, niin voit zoomata sisään; viivalla varustettua vihreää pistettä, niin voit zoomata ulos tai vihreitä nuolia, niin pääset viereisille kartoille.


METAR-TAF: